Airfield :
LOGIN :

Register | Disclaimer

   EN    FR    IT 

 










Legend :    VFR   Marginal VFR   IFR   Intensive IFR   Very Intensive IFR
Visi :
Ceiling :
>= 8 km
>= 3000ft
5 to 8 km
1000 to 3000 ft
1500m to 5 km
500 to 1000 ft
800 to 1500m
200 to 500 ft
< 800m
< 200 ft
Symbols :   Thunderstorms  Fog  Heavy snow  Heavy precipitations  Wind > 20 kt
SIGMETs :     Misc.  Thunderstorms  Icing  Turbulence  Mountain Waves  Volcanic Ashes







- Airport Elevation : 459 ft
- IATA code : CER
- Download approach charts


LFRC - Cherbourg / Maupertus

CURRENT METAR :
  • 240830Z AUTO 24014KT 8000 OVC004 11/10 Q1018 TEMPO 4000 RADZ

EXPIRED METARs :
  • 240800Z AUTO 23011KT 9999 OVC004 11/10 Q1018 TEMPO 2000 RADZ BR
  • 240730Z AUTO 24010KT 210V270 5000 BR OVC004 10/10 Q1019 TEMPO 2000 RADZ BR
  • 240700Z AUTO 26010KT 3900 BR OVC003 10/09 Q1019 TEMPO 2000 RADZ BR
  • 240630Z AUTO 25012KT 2700 BR OVC003 10/09 Q1018 TEMPO RADZ
  • 240600Z AUTO 25011KT 2100 BR OVC003 10/09 Q1018 TEMPO RADZ

TAF TAF LFRC
Valid from the 24 at 09:00 until the 24 at 18:00 UTC


240800Z 2409/2418 24010KT 9999 BKN015
TEMPO 2409/2412 4000 RADZ BKN004
No reported NOTAMs for that airfield.



MET'MAP, your aeronautical weather chart ! - Copyright ORBIFLY December 2007 - Disclaimer

ORBIFLY MET'MAP TEAM :

Programming & Development : Alexandra Zaïnal
Concept & Development : Baudouin d'Aumeries
Co-Development & Prog : Marc-Olivier Méhu
Technical & hardware support : Manuel Goepfert

Contact : metmap@orbifly.com




SOURCES & CREDITS :

   NOAA